sensor_id;sensor_type;location;lat;lon;timestamp;P1;durP1;ratioP1;P2;durP2;ratioP2
51686;SDS011;37774;52.192;4.584;2022-11-20T00:02:08;18.95;;;6.57;;
51686;SDS011;37774;52.192;4.584;2022-11-20T00:04:36;17.67;;;6.57;;
51686;SDS011;37774;52.192;4.584;2022-11-20T00:07:03;17.45;;;7.65;;
51686;SDS011;37774;52.192;4.584;2022-11-20T00:09:30;22.98;;;8.07;;
51686;SDS011;37774;52.192;4.584;2022-11-20T00:11:58;14.80;;;6.15;;
51686;SDS011;37774;52.192;4.584;2022-11-20T00:14:24;15.55;;;6.25;;
51686;SDS011;37774;52.192;4.584;2022-11-20T00:16:51;13.55;;;6.40;;
51686;SDS011;37774;52.192;4.584;2022-11-20T00:19:18;14.05;;;6.10;;
51686;SDS011;37774;52.192;4.584;2022-11-20T00:21:44;15.43;;;6.90;;
51686;SDS011;37774;52.192;4.584;2022-11-20T00:24:11;12.88;;;6.03;;
51686;SDS011;37774;52.192;4.584;2022-11-20T00:26:37;21.10;;;6.38;;
51686;SDS011;37774;52.192;4.584;2022-11-20T00:29:05;10.48;;;5.53;;
51686;SDS011;37774;52.192;4.584;2022-11-20T00:31:32;15.38;;;5.72;;
51686;SDS011;37774;52.192;4.584;2022-11-20T00:33:59;15.32;;;6.07;;
51686;SDS011;37774;52.192;4.584;2022-11-20T00:36:26;11.98;;;6.32;;
51686;SDS011;37774;52.192;4.584;2022-11-20T00:38:54;18.67;;;6.43;;
51686;SDS011;37774;52.192;4.584;2022-11-20T00:41:20;14.80;;;7.55;;
51686;SDS011;37774;52.192;4.584;2022-11-20T00:43:47;16.50;;;6.20;;
51686;SDS011;37774;52.192;4.584;2022-11-20T00:46:16;17.20;;;6.95;;
51686;SDS011;37774;52.192;4.584;2022-11-20T00:48:42;19.73;;;7.45;;
51686;SDS011;37774;52.192;4.584;2022-11-20T00:51:09;12.40;;;6.30;;
51686;SDS011;37774;52.192;4.584;2022-11-20T00:53:37;16.95;;;6.13;;
51686;SDS011;37774;52.192;4.584;2022-11-20T00:56:04;13.20;;;6.18;;
51686;SDS011;37774;52.192;4.584;2022-11-20T00:58:32;14.18;;;5.45;;
51686;SDS011;37774;52.192;4.584;2022-11-20T01:01:02;16.13;;;6.97;;
51686;SDS011;37774;52.192;4.584;2022-11-20T01:03:33;13.27;;;5.32;;
51686;SDS011;37774;52.192;4.584;2022-11-20T01:06:00;15.27;;;5.18;;
51686;SDS011;37774;52.192;4.584;2022-11-20T01:08:29;23.05;;;7.85;;
51686;SDS011;37774;52.192;4.584;2022-11-20T01:10:58;11.10;;;5.97;;
51686;SDS011;37774;52.192;4.584;2022-11-20T01:13:24;16.20;;;6.70;;
51686;SDS011;37774;52.192;4.584;2022-11-20T01:16:03;13.63;;;6.90;;
51686;SDS011;37774;52.192;4.584;2022-11-20T01:18:30;15.20;;;5.43;;
51686;SDS011;37774;52.192;4.584;2022-11-20T01:21:01;15.80;;;6.45;;
51686;SDS011;37774;52.192;4.584;2022-11-20T01:23:30;18.77;;;5.97;;
51686;SDS011;37774;52.192;4.584;2022-11-20T01:25:56;12.82;;;5.80;;
51686;SDS011;37774;52.192;4.584;2022-11-20T01:28:23;17.90;;;6.78;;
51686;SDS011;37774;52.192;4.584;2022-11-20T01:30:49;13.55;;;5.78;;
51686;SDS011;37774;52.192;4.584;2022-11-20T01:33:16;14.52;;;5.82;;
51686;SDS011;37774;52.192;4.584;2022-11-20T01:35:42;16.90;;;6.57;;
51686;SDS011;37774;52.192;4.584;2022-11-20T01:38:10;20.42;;;7.38;;
51686;SDS011;37774;52.192;4.584;2022-11-20T01:40:37;18.42;;;6.95;;
51686;SDS011;37774;52.192;4.584;2022-11-20T01:43:09;16.85;;;6.95;;
51686;SDS011;37774;52.192;4.584;2022-11-20T01:45:56;14.25;;;5.82;;
51686;SDS011;37774;52.192;4.584;2022-11-20T01:48:24;16.95;;;5.90;;
51686;SDS011;37774;52.192;4.584;2022-11-20T01:50:51;20.45;;;8.45;;
51686;SDS011;37774;52.192;4.584;2022-11-20T01:53:21;11.85;;;5.38;;
51686;SDS011;37774;52.192;4.584;2022-11-20T01:55:51;20.77;;;6.25;;
51686;SDS011;37774;52.192;4.584;2022-11-20T01:58:18;14.10;;;5.32;;
51686;SDS011;37774;52.192;4.584;2022-11-20T02:00:46;13.80;;;5.70;;
51686;SDS011;37774;52.192;4.584;2022-11-20T02:03:15;16.88;;;5.88;;
51686;SDS011;37774;52.192;4.584;2022-11-20T02:05:43;17.90;;;6.90;;
51686;SDS011;37774;52.192;4.584;2022-11-20T02:08:11;15.32;;;6.38;;
51686;SDS011;37774;52.192;4.584;2022-11-20T02:10:40;22.90;;;7.05;;
51686;SDS011;37774;52.192;4.584;2022-11-20T02:13:06;13.80;;;6.30;;
51686;SDS011;37774;52.192;4.584;2022-11-20T02:15:51;16.27;;;6.90;;
51686;SDS011;37774;52.192;4.584;2022-11-20T02:18:18;9.20;;;4.70;;
51686;SDS011;37774;52.192;4.584;2022-11-20T02:20:45;15.50;;;6.38;;
51686;SDS011;37774;52.192;4.584;2022-11-20T02:23:15;13.32;;;6.03;;
51686;SDS011;37774;52.192;4.584;2022-11-20T02:25:44;14.95;;;7.15;;
51686;SDS011;37774;52.192;4.584;2022-11-20T02:28:12;19.70;;;8.10;;
51686;SDS011;37774;52.192;4.584;2022-11-20T02:30:39;15.90;;;6.20;;
51686;SDS011;37774;52.192;4.584;2022-11-20T02:33:05;12.30;;;6.18;;
51686;SDS011;37774;52.192;4.584;2022-11-20T02:35:45;13.98;;;6.07;;
51686;SDS011;37774;52.192;4.584;2022-11-20T02:38:12;22.20;;;8.57;;
51686;SDS011;37774;52.192;4.584;2022-11-20T02:40:39;13.55;;;5.43;;
51686;SDS011;37774;52.192;4.584;2022-11-20T02:43:06;20.08;;;6.45;;
51686;SDS011;37774;52.192;4.584;2022-11-20T02:45:33;22.05;;;7.57;;
51686;SDS011;37774;52.192;4.584;2022-11-20T02:48:00;20.38;;;8.38;;
51686;SDS011;37774;52.192;4.584;2022-11-20T02:50:26;15.20;;;5.47;;
51686;SDS011;37774;52.192;4.584;2022-11-20T02:52:53;16.67;;;6.53;;
51686;SDS011;37774;52.192;4.584;2022-11-20T02:55:19;19.35;;;6.50;;
51686;SDS011;37774;52.192;4.584;2022-11-20T02:57:46;13.00;;;6.88;;
51686;SDS011;37774;52.192;4.584;2022-11-20T03:00:14;21.75;;;7.93;;
51686;SDS011;37774;52.192;4.584;2022-11-20T03:02:41;15.90;;;5.75;;
51686;SDS011;37774;52.192;4.584;2022-11-20T03:05:08;18.88;;;8.80;;
51686;SDS011;37774;52.192;4.584;2022-11-20T03:07:34;13.65;;;6.53;;
51686;SDS011;37774;52.192;4.584;2022-11-20T03:10:01;12.25;;;5.68;;
51686;SDS011;37774;52.192;4.584;2022-11-20T03:12:27;22.92;;;7.93;;
51686;SDS011;37774;52.192;4.584;2022-11-20T03:14:54;18.77;;;7.68;;
51686;SDS011;37774;52.192;4.584;2022-11-20T03:17:22;17.35;;;7.00;;
51686;SDS011;37774;52.192;4.584;2022-11-20T03:19:48;14.55;;;6.70;;
51686;SDS011;37774;52.192;4.584;2022-11-20T03:22:15;18.45;;;7.32;;
51686;SDS011;37774;52.192;4.584;2022-11-20T03:24:41;14.40;;;6.82;;
51686;SDS011;37774;52.192;4.584;2022-11-20T03:27:08;21.92;;;6.72;;
51686;SDS011;37774;52.192;4.584;2022-11-20T03:29:35;17.50;;;7.47;;
51686;SDS011;37774;52.192;4.584;2022-11-20T03:32:01;13.80;;;6.55;;
51686;SDS011;37774;52.192;4.584;2022-11-20T03:34:29;13.45;;;6.78;;
51686;SDS011;37774;52.192;4.584;2022-11-20T03:36:56;15.13;;;4.97;;
51686;SDS011;37774;52.192;4.584;2022-11-20T03:39:22;23.00;;;6.72;;
51686;SDS011;37774;52.192;4.584;2022-11-20T03:41:49;16.88;;;6.40;;
51686;SDS011;37774;52.192;4.584;2022-11-20T03:44:16;18.98;;;6.75;;
51686;SDS011;37774;52.192;4.584;2022-11-20T03:46:42;14.18;;;5.85;;
51686;SDS011;37774;52.192;4.584;2022-11-20T03:49:09;25.75;;;6.88;;
51686;SDS011;37774;52.192;4.584;2022-11-20T03:51:37;13.00;;;6.18;;
51686;SDS011;37774;52.192;4.584;2022-11-20T03:54:04;18.42;;;6.78;;
51686;SDS011;37774;52.192;4.584;2022-11-20T03:56:32;15.57;;;6.28;;
51686;SDS011;37774;52.192;4.584;2022-11-20T03:58:59;12.38;;;6.20;;
51686;SDS011;37774;52.192;4.584;2022-11-20T04:01:26;16.80;;;6.20;;
51686;SDS011;37774;52.192;4.584;2022-11-20T04:03:53;19.20;;;7.72;;
51686;SDS011;37774;52.192;4.584;2022-11-20T04:06:21;14.80;;;7.47;;
51686;SDS011;37774;52.192;4.584;2022-11-20T04:08:49;22.08;;;7.15;;
51686;SDS011;37774;52.192;4.584;2022-11-20T04:11:17;16.25;;;6.32;;
51686;SDS011;37774;52.192;4.584;2022-11-20T04:13:45;16.77;;;6.97;;
51686;SDS011;37774;52.192;4.584;2022-11-20T04:16:12;15.77;;;7.13;;
51686;SDS011;37774;52.192;4.584;2022-11-20T04:18:38;26.13;;;8.15;;
51686;SDS011;37774;52.192;4.584;2022-11-20T04:21:05;20.40;;;6.43;;
51686;SDS011;37774;52.192;4.584;2022-11-20T04:23:32;15.45;;;6.57;;
51686;SDS011;37774;52.192;4.584;2022-11-20T04:26:05;18.38;;;7.03;;
51686;SDS011;37774;52.192;4.584;2022-11-20T04:28:32;18.35;;;8.15;;
51686;SDS011;37774;52.192;4.584;2022-11-20T04:31:02;15.00;;;6.72;;
51686;SDS011;37774;52.192;4.584;2022-11-20T04:33:29;23.13;;;6.70;;
51686;SDS011;37774;52.192;4.584;2022-11-20T04:35:59;13.93;;;6.25;;
51686;SDS011;37774;52.192;4.584;2022-11-20T04:38:25;13.02;;;6.95;;
51686;SDS011;37774;52.192;4.584;2022-11-20T04:40:55;17.30;;;7.00;;
51686;SDS011;37774;52.192;4.584;2022-11-20T04:43:23;19.60;;;7.90;;
51686;SDS011;37774;52.192;4.584;2022-11-20T04:45:50;14.50;;;6.53;;
51686;SDS011;37774;52.192;4.584;2022-11-20T04:48:16;17.42;;;7.90;;
51686;SDS011;37774;52.192;4.584;2022-11-20T04:50:43;15.98;;;6.93;;
51686;SDS011;37774;52.192;4.584;2022-11-20T04:53:10;17.55;;;7.95;;
51686;SDS011;37774;52.192;4.584;2022-11-20T04:55:36;18.45;;;7.57;;
51686;SDS011;37774;52.192;4.584;2022-11-20T04:58:03;20.77;;;6.53;;
51686;SDS011;37774;52.192;4.584;2022-11-20T05:00:31;21.27;;;7.10;;
51686;SDS011;37774;52.192;4.584;2022-11-20T05:02:57;14.18;;;6.88;;
51686;SDS011;37774;52.192;4.584;2022-11-20T05:05:24;20.80;;;7.57;;
51686;SDS011;37774;52.192;4.584;2022-11-20T05:07:50;18.55;;;8.15;;
51686;SDS011;37774;52.192;4.584;2022-11-20T05:10:17;17.50;;;7.03;;
51686;SDS011;37774;52.192;4.584;2022-11-20T05:12:44;22.58;;;8.65;;
51686;SDS011;37774;52.192;4.584;2022-11-20T05:15:10;20.88;;;9.27;;
51686;SDS011;37774;52.192;4.584;2022-11-20T05:17:38;20.40;;;8.07;;
51686;SDS011;37774;52.192;4.584;2022-11-20T05:20:05;22.67;;;8.25;;
51686;SDS011;37774;52.192;4.584;2022-11-20T05:22:32;17.05;;;7.18;;
51686;SDS011;37774;52.192;4.584;2022-11-20T05:24:58;25.08;;;8.30;;
51686;SDS011;37774;52.192;4.584;2022-11-20T05:27:28;20.70;;;6.75;;
51686;SDS011;37774;52.192;4.584;2022-11-20T05:29:55;14.80;;;5.97;;
51686;SDS011;37774;52.192;4.584;2022-11-20T05:32:21;23.20;;;8.85;;
51686;SDS011;37774;52.192;4.584;2022-11-20T05:34:52;19.98;;;8.27;;
51686;SDS011;37774;52.192;4.584;2022-11-20T05:37:19;20.25;;;8.68;;
51686;SDS011;37774;52.192;4.584;2022-11-20T05:39:45;25.23;;;8.50;;
51686;SDS011;37774;52.192;4.584;2022-11-20T05:42:12;24.70;;;7.88;;
51686;SDS011;37774;52.192;4.584;2022-11-20T05:44:57;20.58;;;7.80;;
51686;SDS011;37774;52.192;4.584;2022-11-20T05:47:24;31.17;;;9.65;;
51686;SDS011;37774;52.192;4.584;2022-11-20T05:49:52;23.67;;;8.07;;
51686;SDS011;37774;52.192;4.584;2022-11-20T05:52:18;21.27;;;8.25;;
51686;SDS011;37774;52.192;4.584;2022-11-20T05:54:45;29.17;;;8.05;;
51686;SDS011;37774;52.192;4.584;2022-11-20T05:57:12;23.05;;;8.63;;
51686;SDS011;37774;52.192;4.584;2022-11-20T05:59:38;18.35;;;8.88;;
51686;SDS011;37774;52.192;4.584;2022-11-20T06:02:05;16.58;;;7.95;;
51686;SDS011;37774;52.192;4.584;2022-11-20T06:04:32;24.98;;;9.45;;
51686;SDS011;37774;52.192;4.584;2022-11-20T06:07:00;21.25;;;8.32;;
51686;SDS011;37774;52.192;4.584;2022-11-20T06:09:26;15.13;;;7.82;;
51686;SDS011;37774;52.192;4.584;2022-11-20T06:11:53;28.80;;;9.65;;
51686;SDS011;37774;52.192;4.584;2022-11-20T06:14:19;18.13;;;7.00;;
51686;SDS011;37774;52.192;4.584;2022-11-20T06:16:46;21.63;;;7.53;;
51686;SDS011;37774;52.192;4.584;2022-11-20T06:19:12;20.08;;;6.50;;
51686;SDS011;37774;52.192;4.584;2022-11-20T06:21:40;15.90;;;6.93;;
51686;SDS011;37774;52.192;4.584;2022-11-20T06:24:08;19.05;;;7.03;;
51686;SDS011;37774;52.192;4.584;2022-11-20T06:26:35;17.00;;;7.45;;
51686;SDS011;37774;52.192;4.584;2022-11-20T06:29:01;18.80;;;6.93;;
51686;SDS011;37774;52.192;4.584;2022-11-20T06:31:28;23.27;;;7.30;;
51686;SDS011;37774;52.192;4.584;2022-11-20T06:33:57;22.48;;;8.40;;
51686;SDS011;37774;52.192;4.584;2022-11-20T06:36:27;14.82;;;6.57;;
51686;SDS011;37774;52.192;4.584;2022-11-20T06:38:54;20.63;;;7.93;;
51686;SDS011;37774;52.192;4.584;2022-11-20T06:41:22;13.82;;;6.63;;
51686;SDS011;37774;52.192;4.584;2022-11-20T06:43:49;19.38;;;8.35;;
51686;SDS011;37774;52.192;4.584;2022-11-20T06:46:16;20.95;;;8.70;;
51686;SDS011;37774;52.192;4.584;2022-11-20T06:48:43;15.98;;;7.10;;
51686;SDS011;37774;52.192;4.584;2022-11-20T06:51:10;27.48;;;9.30;;
51686;SDS011;37774;52.192;4.584;2022-11-20T06:53:37;17.45;;;7.78;;
51686;SDS011;37774;52.192;4.584;2022-11-20T06:56:04;19.52;;;9.00;;
51686;SDS011;37774;52.192;4.584;2022-11-20T06:58:32;18.50;;;9.07;;
51686;SDS011;37774;52.192;4.584;2022-11-20T07:00:59;24.83;;;8.85;;
51686;SDS011;37774;52.192;4.584;2022-11-20T07:03:26;16.98;;;7.93;;
51686;SDS011;37774;52.192;4.584;2022-11-20T07:05:54;21.65;;;8.60;;
51686;SDS011;37774;52.192;4.584;2022-11-20T07:08:20;21.23;;;8.90;;
51686;SDS011;37774;52.192;4.584;2022-11-20T07:10:47;15.50;;;6.30;;
51686;SDS011;37774;52.192;4.584;2022-11-20T07:13:14;26.27;;;9.15;;
51686;SDS011;37774;52.192;4.584;2022-11-20T07:15:42;19.52;;;9.30;;
51686;SDS011;37774;52.192;4.584;2022-11-20T07:18:08;30.17;;;9.73;;
51686;SDS011;37774;52.192;4.584;2022-11-20T07:20:35;16.35;;;8.15;;
51686;SDS011;37774;52.192;4.584;2022-11-20T07:23:02;32.20;;;10.07;;
51686;SDS011;37774;52.192;4.584;2022-11-20T07:25:30;27.17;;;9.90;;
51686;SDS011;37774;52.192;4.584;2022-11-20T07:27:57;24.65;;;8.57;;
51686;SDS011;37774;52.192;4.584;2022-11-20T07:30:24;21.52;;;9.20;;
51686;SDS011;37774;52.192;4.584;2022-11-20T07:32:52;23.75;;;8.52;;
51686;SDS011;37774;52.192;4.584;2022-11-20T07:35:19;16.85;;;7.70;;
51686;SDS011;37774;52.192;4.584;2022-11-20T07:37:46;26.92;;;9.88;;
51686;SDS011;37774;52.192;4.584;2022-11-20T07:40:13;25.88;;;8.93;;
51686;SDS011;37774;52.192;4.584;2022-11-20T07:42:46;26.08;;;9.55;;
51686;SDS011;37774;52.192;4.584;2022-11-20T07:45:13;24.88;;;9.00;;
51686;SDS011;37774;52.192;4.584;2022-11-20T07:47:40;22.88;;;9.02;;
51686;SDS011;37774;52.192;4.584;2022-11-20T07:50:09;27.02;;;9.73;;
51686;SDS011;37774;52.192;4.584;2022-11-20T07:52:36;21.08;;;7.70;;
51686;SDS011;37774;52.192;4.584;2022-11-20T07:55:02;24.02;;;9.27;;
51686;SDS011;37774;52.192;4.584;2022-11-20T07:57:30;28.92;;;9.20;;
51686;SDS011;37774;52.192;4.584;2022-11-20T07:59:56;19.88;;;9.43;;
51686;SDS011;37774;52.192;4.584;2022-11-20T08:02:23;28.67;;;9.27;;
51686;SDS011;37774;52.192;4.584;2022-11-20T08:04:49;24.23;;;8.73;;
51686;SDS011;37774;52.192;4.584;2022-11-20T08:07:18;32.75;;;9.80;;
51686;SDS011;37774;52.192;4.584;2022-11-20T08:09:44;27.77;;;10.40;;
51686;SDS011;37774;52.192;4.584;2022-11-20T08:12:15;24.13;;;9.50;;
51686;SDS011;37774;52.192;4.584;2022-11-20T08:15:00;31.83;;;10.38;;
51686;SDS011;37774;52.192;4.584;2022-11-20T08:17:27;23.60;;;9.55;;
51686;SDS011;37774;52.192;4.584;2022-11-20T08:19:53;24.33;;;9.02;;
51686;SDS011;37774;52.192;4.584;2022-11-20T08:22:21;20.60;;;7.95;;
51686;SDS011;37774;52.192;4.584;2022-11-20T08:24:48;26.95;;;9.70;;
51686;SDS011;37774;52.192;4.584;2022-11-20T08:27:14;20.42;;;8.70;;
51686;SDS011;37774;52.192;4.584;2022-11-20T08:29:41;26.20;;;10.02;;
51686;SDS011;37774;52.192;4.584;2022-11-20T08:32:07;22.73;;;9.20;;
51686;SDS011;37774;52.192;4.584;2022-11-20T08:34:34;24.73;;;10.77;;
51686;SDS011;37774;52.192;4.584;2022-11-20T08:37:01;21.58;;;9.10;;
51686;SDS011;37774;52.192;4.584;2022-11-20T08:39:29;27.33;;;10.82;;
51686;SDS011;37774;52.192;4.584;2022-11-20T08:41:56;25.85;;;10.98;;
51686;SDS011;37774;52.192;4.584;2022-11-20T08:44:22;25.63;;;12.27;;
51686;SDS011;37774;52.192;4.584;2022-11-20T08:46:49;23.95;;;9.82;;
51686;SDS011;37774;52.192;4.584;2022-11-20T08:49:15;27.50;;;11.68;;
51686;SDS011;37774;52.192;4.584;2022-11-20T08:51:43;27.83;;;9.85;;
51686;SDS011;37774;52.192;4.584;2022-11-20T08:54:10;26.42;;;10.57;;
51686;SDS011;37774;52.192;4.584;2022-11-20T08:56:38;30.13;;;12.07;;
51686;SDS011;37774;52.192;4.584;2022-11-20T08:59:04;28.73;;;9.70;;
51686;SDS011;37774;52.192;4.584;2022-11-20T09:01:31;29.75;;;11.98;;
51686;SDS011;37774;52.192;4.584;2022-11-20T09:03:57;28.23;;;10.90;;
51686;SDS011;37774;52.192;4.584;2022-11-20T09:06:25;29.55;;;12.32;;
51686;SDS011;37774;52.192;4.584;2022-11-20T09:08:52;29.95;;;11.23;;
51686;SDS011;37774;52.192;4.584;2022-11-20T09:11:18;26.02;;;11.02;;
51686;SDS011;37774;52.192;4.584;2022-11-20T09:13:46;38.03;;;14.40;;
51686;SDS011;37774;52.192;4.584;2022-11-20T09:16:13;25.77;;;11.40;;
51686;SDS011;37774;52.192;4.584;2022-11-20T09:18:40;32.42;;;11.40;;
51686;SDS011;37774;52.192;4.584;2022-11-20T09:21:08;28.13;;;11.43;;
51686;SDS011;37774;52.192;4.584;2022-11-20T09:23:36;28.85;;;12.98;;
51686;SDS011;37774;52.192;4.584;2022-11-20T09:26:03;32.55;;;13.77;;
51686;SDS011;37774;52.192;4.584;2022-11-20T09:28:29;26.83;;;11.48;;
51686;SDS011;37774;52.192;4.584;2022-11-20T09:30:58;31.27;;;12.10;;
51686;SDS011;37774;52.192;4.584;2022-11-20T09:33:24;29.15;;;13.10;;
51686;SDS011;37774;52.192;4.584;2022-11-20T09:35:53;31.42;;;13.60;;
51686;SDS011;37774;52.192;4.584;2022-11-20T09:38:19;40.83;;;13.40;;
51686;SDS011;37774;52.192;4.584;2022-11-20T09:40:48;33.55;;;12.25;;
51686;SDS011;37774;52.192;4.584;2022-11-20T09:43:18;35.40;;;14.32;;
51686;SDS011;37774;52.192;4.584;2022-11-20T09:45:58;33.13;;;13.05;;
51686;SDS011;37774;52.192;4.584;2022-11-20T09:48:30;30.65;;;12.57;;
51686;SDS011;37774;52.192;4.584;2022-11-20T09:50:59;28.98;;;13.57;;
51686;SDS011;37774;52.192;4.584;2022-11-20T09:53:30;26.58;;;12.30;;
51686;SDS011;37774;52.192;4.584;2022-11-20T09:56:02;29.00;;;12.30;;
51686;SDS011;37774;52.192;4.584;2022-11-20T09:58:31;32.85;;;14.07;;
51686;SDS011;37774;52.192;4.584;2022-11-20T10:01:03;28.73;;;12.18;;
51686;SDS011;37774;52.192;4.584;2022-11-20T10:03:36;40.28;;;14.27;;
51686;SDS011;37774;52.192;4.584;2022-11-20T10:06:04;30.70;;;12.95;;
51686;SDS011;37774;52.192;4.584;2022-11-20T10:08:34;31.15;;;13.85;;
51686;SDS011;37774;52.192;4.584;2022-11-20T10:11:04;27.30;;;13.20;;
51686;SDS011;37774;52.192;4.584;2022-11-20T10:13:35;39.50;;;13.30;;
51686;SDS011;37774;52.192;4.584;2022-11-20T10:16:12;24.50;;;11.43;;
51686;SDS011;37774;52.192;4.584;2022-11-20T10:18:43;32.40;;;14.10;;
51686;SDS011;37774;52.192;4.584;2022-11-20T10:21:16;31.65;;;13.25;;
51686;SDS011;37774;52.192;4.584;2022-11-20T10:26:29;33.35;;;14.27;;
51686;SDS011;37774;52.192;4.584;2022-11-20T10:29:05;30.30;;;14.57;;
51686;SDS011;37774;52.192;4.584;2022-11-20T10:31:36;37.97;;;14.00;;
51686;SDS011;37774;52.192;4.584;2022-11-20T10:34:04;35.97;;;15.25;;
51686;SDS011;37774;52.192;4.584;2022-11-20T10:36:33;30.67;;;14.05;;
51686;SDS011;37774;52.192;4.584;2022-11-20T10:39:03;35.95;;;13.82;;
51686;SDS011;37774;52.192;4.584;2022-11-20T10:41:32;30.35;;;14.60;;
51686;SDS011;37774;52.192;4.584;2022-11-20T10:44:02;34.80;;;14.13;;
51686;SDS011;37774;52.192;4.584;2022-11-20T10:46:32;28.27;;;12.80;;
51686;SDS011;37774;52.192;4.584;2022-11-20T10:49:04;37.30;;;14.73;;
51686;SDS011;37774;52.192;4.584;2022-11-20T10:51:42;38.03;;;14.95;;
51686;SDS011;37774;52.192;4.584;2022-11-20T10:54:18;35.47;;;14.63;;
51686;SDS011;37774;52.192;4.584;2022-11-20T10:56:50;31.67;;;13.57;;
51686;SDS011;37774;52.192;4.584;2022-11-20T10:59:28;35.65;;;13.93;;
51686;SDS011;37774;52.192;4.584;2022-11-20T11:01:59;34.17;;;15.30;;
51686;SDS011;37774;52.192;4.584;2022-11-20T11:04:32;38.15;;;14.50;;
51686;SDS011;37774;52.192;4.584;2022-11-20T11:07:04;30.52;;;13.45;;
51686;SDS011;37774;52.192;4.584;2022-11-20T11:09:33;38.03;;;13.13;;
51686;SDS011;37774;52.192;4.584;2022-11-20T11:12:00;32.47;;;14.05;;
51686;SDS011;37774;52.192;4.584;2022-11-20T11:14:27;36.28;;;15.88;;
51686;SDS011;37774;52.192;4.584;2022-11-20T11:16:56;32.88;;;13.43;;
51686;SDS011;37774;52.192;4.584;2022-11-20T11:19:23;36.65;;;14.88;;
51686;SDS011;37774;52.192;4.584;2022-11-20T11:21:52;33.63;;;16.42;;
51686;SDS011;37774;52.192;4.584;2022-11-20T11:24:20;33.28;;;13.98;;
51686;SDS011;37774;52.192;4.584;2022-11-20T11:26:51;38.20;;;15.65;;
51686;SDS011;37774;52.192;4.584;2022-11-20T11:29:18;36.75;;;15.85;;
51686;SDS011;37774;52.192;4.584;2022-11-20T11:31:45;39.67;;;15.43;;
51686;SDS011;37774;52.192;4.584;2022-11-20T11:34:13;44.30;;;16.60;;
51686;SDS011;37774;52.192;4.584;2022-11-20T11:36:39;43.97;;;17.15;;
51686;SDS011;37774;52.192;4.584;2022-11-20T11:39:11;35.55;;;15.65;;
51686;SDS011;37774;52.192;4.584;2022-11-20T11:41:40;36.80;;;13.82;;
51686;SDS011;37774;52.192;4.584;2022-11-20T11:44:14;37.25;;;15.13;;
51686;SDS011;37774;52.192;4.584;2022-11-20T11:46:59;39.63;;;15.52;;
51686;SDS011;37774;52.192;4.584;2022-11-20T11:49:26;40.20;;;16.40;;
51686;SDS011;37774;52.192;4.584;2022-11-20T11:52:03;38.35;;;14.93;;
51686;SDS011;37774;52.192;4.584;2022-11-20T11:54:34;36.80;;;16.10;;
51686;SDS011;37774;52.192;4.584;2022-11-20T11:57:03;42.10;;;14.52;;
51686;SDS011;37774;52.192;4.584;2022-11-20T11:59:34;36.08;;;14.40;;
51686;SDS011;37774;52.192;4.584;2022-11-20T12:02:10;40.90;;;15.35;;
51686;SDS011;37774;52.192;4.584;2022-11-20T12:04:41;38.13;;;13.70;;
51686;SDS011;37774;52.192;4.584;2022-11-20T12:07:10;38.75;;;16.77;;
51686;SDS011;37774;52.192;4.584;2022-11-20T12:09:41;50.83;;;18.75;;
51686;SDS011;37774;52.192;4.584;2022-11-20T12:12:10;43.55;;;17.02;;
51686;SDS011;37774;52.192;4.584;2022-11-20T12:14:37;39.33;;;15.55;;
51686;SDS011;37774;52.192;4.584;2022-11-20T12:17:07;38.30;;;15.60;;
51686;SDS011;37774;52.192;4.584;2022-11-20T12:19:36;39.50;;;15.48;;
51686;SDS011;37774;52.192;4.584;2022-11-20T12:22:05;30.48;;;13.77;;
51686;SDS011;37774;52.192;4.584;2022-11-20T12:24:41;60.92;;;17.85;;
51686;SDS011;37774;52.192;4.584;2022-11-20T12:27:22;49.73;;;16.97;;
51686;SDS011;37774;52.192;4.584;2022-11-20T12:29:53;47.08;;;16.20;;
51686;SDS011;37774;52.192;4.584;2022-11-20T12:32:31;36.28;;;14.50;;
51686;SDS011;37774;52.192;4.584;2022-11-20T12:35:03;42.70;;;17.50;;
51686;SDS011;37774;52.192;4.584;2022-11-20T12:37:34;46.65;;;16.48;;
51686;SDS011;37774;52.192;4.584;2022-11-20T12:40:09;44.20;;;16.10;;
51686;SDS011;37774;52.192;4.584;2022-11-20T12:42:52;40.63;;;16.92;;
51686;SDS011;37774;52.192;4.584;2022-11-20T12:45:54;40.67;;;14.35;;
51686;SDS011;37774;52.192;4.584;2022-11-20T12:51:14;49.17;;;16.33;;
51686;SDS011;37774;52.192;4.584;2022-11-20T12:53:47;43.03;;;16.75;;
51686;SDS011;37774;52.192;4.584;2022-11-20T12:56:20;40.05;;;15.50;;
51686;SDS011;37774;52.192;4.584;2022-11-20T12:58:49;46.65;;;16.45;;
51686;SDS011;37774;52.192;4.584;2022-11-20T13:01:23;35.78;;;15.43;;
51686;SDS011;37774;52.192;4.584;2022-11-20T13:04:07;42.92;;;15.95;;
51686;SDS011;37774;52.192;4.584;2022-11-20T13:06:34;43.78;;;17.23;;
51686;SDS011;37774;52.192;4.584;2022-11-20T13:09:02;36.60;;;15.57;;
51686;SDS011;37774;52.192;4.584;2022-11-20T13:11:34;51.75;;;17.55;;
51686;SDS011;37774;52.192;4.584;2022-11-20T13:14:05;44.55;;;15.05;;
51686;SDS011;37774;52.192;4.584;2022-11-20T13:16:36;40.75;;;14.85;;
51686;SDS011;37774;52.192;4.584;2022-11-20T13:19:04;51.88;;;16.65;;
51686;SDS011;37774;52.192;4.584;2022-11-20T13:21:37;48.88;;;18.58;;
51686;SDS011;37774;52.192;4.584;2022-11-20T13:24:04;48.47;;;18.08;;
51686;SDS011;37774;52.192;4.584;2022-11-20T13:26:32;49.78;;;17.33;;
51686;SDS011;37774;52.192;4.584;2022-11-20T13:28:59;43.03;;;17.35;;
51686;SDS011;37774;52.192;4.584;2022-11-20T13:31:28;50.33;;;15.13;;
51686;SDS011;37774;52.192;4.584;2022-11-20T13:33:56;42.40;;;16.17;;
51686;SDS011;37774;52.192;4.584;2022-11-20T13:36:24;44.90;;;15.98;;
51686;SDS011;37774;52.192;4.584;2022-11-20T13:38:52;44.10;;;17.42;;
51686;SDS011;37774;52.192;4.584;2022-11-20T13:41:23;48.70;;;16.05;;
51686;SDS011;37774;52.192;4.584;2022-11-20T13:44:06;45.67;;;16.75;;
51686;SDS011;37774;52.192;4.584;2022-11-20T13:46:41;47.53;;;17.52;;
51686;SDS011;37774;52.192;4.584;2022-11-20T13:49:09;48.10;;;15.88;;
51686;SDS011;37774;52.192;4.584;2022-11-20T13:51:42;46.80;;;17.02;;
51686;SDS011;37774;52.192;4.584;2022-11-20T13:54:14;55.72;;;18.15;;
51686;SDS011;37774;52.192;4.584;2022-11-20T13:56:46;58.47;;;17.88;;
51686;SDS011;37774;52.192;4.584;2022-11-20T13:59:20;50.40;;;17.05;;
51686;SDS011;37774;52.192;4.584;2022-11-20T14:01:50;50.13;;;16.65;;
51686;SDS011;37774;52.192;4.584;2022-11-20T14:04:18;43.35;;;16.40;;
51686;SDS011;37774;52.192;4.584;2022-11-20T14:06:46;53.10;;;16.27;;
51686;SDS011;37774;52.192;4.584;2022-11-20T14:09:24;49.20;;;17.15;;
51686;SDS011;37774;52.192;4.584;2022-11-20T14:11:51;49.85;;;17.67;;
51686;SDS011;37774;52.192;4.584;2022-11-20T14:14:19;52.05;;;17.25;;
51686;SDS011;37774;52.192;4.584;2022-11-20T14:16:47;56.42;;;19.75;;
51686;SDS011;37774;52.192;4.584;2022-11-20T14:19:21;49.50;;;18.45;;
51686;SDS011;37774;52.192;4.584;2022-11-20T14:21:48;58.88;;;20.95;;
51686;SDS011;37774;52.192;4.584;2022-11-20T14:24:18;59.67;;;19.35;;
51686;SDS011;37774;52.192;4.584;2022-11-20T14:26:49;44.65;;;15.68;;
51686;SDS011;37774;52.192;4.584;2022-11-20T14:29:17;50.55;;;18.83;;
51686;SDS011;37774;52.192;4.584;2022-11-20T14:31:45;51.15;;;18.67;;
51686;SDS011;37774;52.192;4.584;2022-11-20T14:34:13;46.10;;;16.77;;
51686;SDS011;37774;52.192;4.584;2022-11-20T14:36:41;55.30;;;17.10;;
51686;SDS011;37774;52.192;4.584;2022-11-20T14:39:09;54.38;;;18.15;;
51686;SDS011;37774;52.192;4.584;2022-11-20T14:41:36;63.45;;;18.95;;
51686;SDS011;37774;52.192;4.584;2022-11-20T14:44:02;44.70;;;17.67;;